Terminal Aerodrome Forecast
Issued by NWS Central Illinois

Home | Current Version | Previous Version | Text Only | Print | Product List | Glossary On
Versions: 1 2 3 4 5 6 7 8 9 10 11 12 13 14 15 16 17
000
FTUS43 KILX 031528 AAA
TAFPIA
TAF AMD
KPIA 031528Z 0315/0412 20011G16KT P6SM SCT080
     FM031700 20014G20KT P6SM VCSH SCT080 BKN150
     FM040000 19011KT P6SM SCT250
     FM040300 19010KT P6SM VCSH BKN060=

USA.gov is the U.S. government's official web portal to all federal, state and local government web resources and services.